Time;durP1;ratioP1;P1;durP2;ratioP2;P2;SDS_P1;SDS_P2;PMS_P1;PMS_P2;Temp;Humidity;BMP_temperature;BMP_pressure;BME280_temperature;BME280_humidity;BME280_pressure;Samples;Min_cycle;Max_cycle;Signal;HPM_P1;HPM_P2
2023/05/18 00:01:58;;;;;;;2.27;1.50;;;21.30;53.70;;;;;;5066014;28;20197;-44
2023/05/18 00:04:36;;;;;;;3.43;1.20;;;21.20;53.70;;;;;;5068514;28;20192;-44
2023/05/18 00:07:05;;;;;;;2.77;1.23;;;21.20;54.20;;;;;;5051708;28;20719;-44
2023/05/18 00:09:39;;;;;;;2.03;1.37;;;21.20;53.70;;;;;;5065958;28;20244;-44
2023/05/18 00:12:09;;;;;;;2.33;1.10;;;21.20;53.70;;;;;;5066673;28;20204;-45
2023/05/18 00:14:39;;;;;;;4.00;1.40;;;21.20;53.70;;;;;;5051085;28;20239;-45
2023/05/18 00:17:13;;;;;;;2.87;1.20;;;21.20;53.70;;;;;;5069256;28;20632;-45
2023/05/18 00:19:45;;;;;;;2.67;1.10;;;21.20;53.60;;;;;;5068066;28;20197;-44
2023/05/18 00:22:17;;;;;;;3.67;1.40;;;21.10;53.60;;;;;;5064080;28;20214;-45
2023/05/18 00:24:50;;;;;;;4.03;1.27;;;21.10;53.70;;;;;;5056762;28;20715;-45
2023/05/18 00:27:21;;;;;;;3.10;1.20;;;21.10;53.60;;;;;;5068239;28;20727;-45
2023/05/18 00:29:51;;;;;;;2.03;1.20;;;21.10;53.70;;;;;;5068330;28;20222;-44
2023/05/18 00:32:22;;;;;;;2.80;1.20;;;21.10;53.70;;;;;;5065665;28;20244;-45
2023/05/18 00:34:51;;;;;;;2.53;1.63;;;21.10;53.70;;;;;;5051306;28;20716;-45
2023/05/18 00:37:20;;;;;;;2.70;1.20;;;21.10;53.70;;;;;;5061759;28;20537;-45
2023/05/18 00:39:51;;;;;;;1.90;1.07;;;21.10;53.60;;;;;;5069417;28;20215;-45
2023/05/18 00:42:21;;;;;;;3.07;1.33;;;21.10;53.70;;;;;;5069309;28;20206;-45
2023/05/18 00:44:53;;;;;;;1.97;1.10;;;21.10;53.60;;;;;;5065706;28;20654;-44
2023/05/18 00:47:24;;;;;;;2.03;1.13;;;21.00;53.60;;;;;;5068065;28;20668;-44
2023/05/18 00:49:57;;;;;;;2.60;1.40;;;21.00;53.60;;;;;;5069077;28;20224;-44
2023/05/18 00:52:45;;;;;;;2.30;1.03;;;21.10;53.50;;;;;;5064243;28;20228;-45
2023/05/18 00:55:15;;;;;;;3.90;1.37;;;21.00;53.40;;;;;;5069713;28;20279;-45
2023/05/18 00:57:46;;;;;;;2.50;1.33;;;21.00;53.40;;;;;;5067654;28;20236;-45
2023/05/18 01:00:19;;;;;;;2.97;1.27;;;21.00;53.40;;;;;;5066647;28;20205;-45
2023/05/18 01:02:49;;;;;;;2.40;1.03;;;21.00;53.40;;;;;;5071818;28;20224;-45
2023/05/18 01:05:22;;;;;;;4.37;1.20;;;21.00;53.30;;;;;;5072382;28;20198;-45
2023/05/18 01:07:50;;;;;;;2.33;0.97;;;21.00;53.30;;;;;;5047755;28;20655;-45
2023/05/18 01:10:19;;;;;;;2.30;1.10;;;21.00;53.30;;;;;;5035907;28;20518;-45
2023/05/18 01:13:19;;;;;;;1.60;1.10;;;21.00;53.30;;;;;;5062869;28;20178;-45
2023/05/18 01:16:00;;;;;;;1.47;1.03;;;21.00;53.30;;;;;;5068319;28;20670;-45
2023/05/18 01:19:06;;;;;;;1.77;0.93;;;21.00;53.30;;;;;;5062781;28;20216;-45
2023/05/18 01:21:52;;;;;;;2.57;1.07;;;21.00;53.20;;;;;;5069377;28;20585;-45
2023/05/18 01:24:44;;;;;;;1.83;0.90;;;21.00;53.20;;;;;;5070562;28;20194;-44
2023/05/18 01:27:18;;;;;;;2.00;1.10;;;21.00;53.20;;;;;;5063109;28;20236;-45
2023/05/18 01:29:49;;;;;;;2.60;1.10;;;21.00;53.30;;;;;;5039847;28;20916;-45
2023/05/18 01:32:26;;;;;;;2.87;0.93;;;20.90;53.30;;;;;;5022798;28;20735;-45
2023/05/18 01:34:58;;;;;;;2.13;0.97;;;20.90;53.20;;;;;;5052289;28;20206;-45
2023/05/18 01:37:38;;;;;;;2.30;0.97;;;20.90;53.30;;;;;;5059246;28;20229;-45
2023/05/18 01:40:14;;;;;;;2.77;1.10;;;20.90;53.30;;;;;;5031617;28;20403;-45
2023/05/18 01:42:55;;;;;;;1.90;1.07;;;20.90;53.20;;;;;;5050873;28;20628;-45
2023/05/18 01:45:28;;;;;;;2.60;1.10;;;20.90;53.20;;;;;;5049959;28;20222;-45
2023/05/18 01:48:02;;;;;;;2.50;1.37;;;20.80;53.10;;;;;;5026973;28;20215;-44
2023/05/18 01:50:41;;;;;;;5.13;1.30;;;20.90;53.20;;;;;;5051248;28;20216;-45
2023/05/18 01:53:22;;;;;;;2.90;1.20;;;20.90;53.20;;;;;;5039119;28;20206;-45
2023/05/18 01:55:57;;;;;;;2.07;1.10;;;20.80;53.10;;;;;;5033713;28;20210;-45
2023/05/18 01:58:40;;;;;;;2.27;1.13;;;20.80;53.10;;;;;;5051174;28;20273;-45
2023/05/18 02:01:14;;;;;;;2.47;0.93;;;20.80;53.20;;;;;;5033114;28;20209;-45
2023/05/18 02:03:47;;;;;;;1.83;1.10;;;20.80;53.10;;;;;;5050188;28;20570;-45
2023/05/18 02:06:16;;;;;;;3.13;1.20;;;20.80;53.10;;;;;;5048648;28;20288;-44
2023/05/18 02:08:45;;;;;;;3.90;1.37;;;20.80;53.10;;;;;;5031965;28;20218;-44
2023/05/18 02:11:16;;;;;;;2.53;1.03;;;20.80;53.10;;;;;;5024105;28;20227;-44
2023/05/18 02:13:46;;;;;;;3.03;1.30;;;20.80;53.00;;;;;;5047052;28;20205;-44
2023/05/18 02:16:15;;;;;;;1.93;1.00;;;20.80;53.10;;;;;;5050003;28;20255;-44
2023/05/18 02:18:46;;;;;;;2.73;1.40;;;20.70;53.00;;;;;;5049605;28;20206;-44
2023/05/18 02:21:17;;;;;;;1.50;0.90;;;20.70;52.90;;;;;;5051533;28;20194;-44
2023/05/18 02:23:51;;;;;;;2.90;1.30;;;20.70;53.00;;;;;;5054109;28;20252;-44
2023/05/18 02:26:21;;;;;;;2.93;0.90;;;20.70;53.00;;;;;;5057019;28;20190;-44
2023/05/18 02:28:51;;;;;;;1.57;0.90;;;20.70;53.00;;;;;;5055329;28;20228;-44
2023/05/18 02:31:22;;;;;;;2.63;1.00;;;20.70;53.00;;;;;;5054589;28;20221;-44
2023/05/18 02:33:52;;;;;;;1.70;0.90;;;20.70;52.90;;;;;;5068303;28;20229;-44
2023/05/18 02:36:21;;;;;;;2.27;1.00;;;20.70;52.90;;;;;;5075587;28;20197;-44
2023/05/18 02:38:52;;;;;;;2.60;1.17;;;20.70;53.00;;;;;;5069512;28;20193;-44
2023/05/18 02:41:24;;;;;;;3.07;1.00;;;20.70;52.90;;;;;;5070384;28;20209;-44
2023/05/18 02:43:57;;;;;;;1.20;0.90;;;20.60;52.90;;;;;;5069284;28;20218;-44
2023/05/18 02:46:28;;;;;;;3.37;1.00;;;20.60;52.90;;;;;;5074307;28;20635;-44
2023/05/18 02:49:00;;;;;;;1.80;1.00;;;20.70;52.90;;;;;;5052465;28;20657;-44
2023/05/18 02:51:30;;;;;;;3.67;1.40;;;20.60;52.80;;;;;;5071639;28;20271;-44
2023/05/18 02:54:01;;;;;;;2.03;1.30;;;20.60;52.80;;;;;;5069877;28;20197;-44
2023/05/18 02:56:33;;;;;;;1.83;0.90;;;20.60;52.80;;;;;;5068145;28;20201;-44
2023/05/18 02:59:05;;;;;;;1.27;0.87;;;20.60;52.90;;;;;;5069170;28;20198;-44
2023/05/18 03:01:39;;;;;;;1.60;1.17;;;20.60;52.80;;;;;;5070147;28;20190;-45
2023/05/18 03:04:20;;;;;;;1.77;1.20;;;20.50;52.70;;;;;;5053301;28;20444;-44
2023/05/18 03:06:51;;;;;;;3.07;1.27;;;20.60;52.80;;;;;;5081908;28;20193;-44
2023/05/18 03:09:23;;;;;;;2.07;1.00;;;20.50;52.80;;;;;;5070084;28;20213;-44
2023/05/18 03:11:53;;;;;;;2.03;1.27;;;20.60;52.70;;;;;;5052839;28;20665;-44
2023/05/18 03:14:23;;;;;;;1.77;1.00;;;20.50;52.70;;;;;;5069775;28;20201;-44
2023/05/18 03:16:56;;;;;;;2.70;1.17;;;20.50;52.60;;;;;;5069457;28;20202;-44
2023/05/18 03:19:29;;;;;;;2.77;1.20;;;20.60;52.60;;;;;;5057681;28;20247;-44
2023/05/18 03:21:58;;;;;;;2.57;1.10;;;20.50;52.60;;;;;;5067725;28;20296;-44
2023/05/18 03:24:39;;;;;;;2.67;1.10;;;20.50;52.60;;;;;;5080755;28;20595;-44
2023/05/18 03:27:11;;;;;;;2.07;1.17;;;20.50;52.60;;;;;;5060004;28;20194;-44
2023/05/18 03:29:44;;;;;;;2.90;1.10;;;20.50;52.60;;;;;;5060646;28;20864;-44
2023/05/18 03:32:30;;;;;;;3.43;1.40;;;20.50;52.60;;;;;;5048701;28;20298;-44
2023/05/18 03:35:00;;;;;;;1.93;1.13;;;20.50;52.60;;;;;;5053889;28;20301;-44
2023/05/18 03:37:31;;;;;;;2.37;1.20;;;20.50;52.60;;;;;;5054114;28;20277;-44
2023/05/18 03:40:12;;;;;;;2.67;1.20;;;20.50;52.50;;;;;;5034200;28;20208;-44
2023/05/18 03:42:50;;;;;;;4.40;1.40;;;20.50;52.50;;;;;;5035986;28;20668;-44
2023/05/18 03:45:21;;;;;;;2.93;0.90;;;20.50;52.50;;;;;;5047373;28;20611;-44
2023/05/18 03:47:52;;;;;;;2.57;1.20;;;20.40;52.50;;;;;;5060333;28;20686;-44
2023/05/18 03:50:23;;;;;;;1.63;1.10;;;20.40;52.40;;;;;;5048934;28;20218;-44
2023/05/18 03:52:54;;;;;;;2.23;1.20;;;20.40;52.50;;;;;;5049687;28;20195;-44
2023/05/18 03:55:23;;;;;;;2.53;1.30;;;20.40;52.50;;;;;;5049072;28;20187;-43
2023/05/18 03:57:50;;;;;;;1.33;0.77;;;20.40;52.60;;;;;;5053888;28;20895;-43
2023/05/18 04:00:22;;;;;;;3.30;1.23;;;20.40;52.50;;;;;;5049226;28;20538;-43
2023/05/18 04:02:53;;;;;;;1.50;1.00;;;20.40;52.50;;;;;;5048415;28;20195;-44
2023/05/18 04:05:21;;;;;;;1.57;0.83;;;20.30;52.40;;;;;;5032865;28;20202;-44
2023/05/18 04:07:56;;;;;;;1.57;1.00;;;20.30;52.50;;;;;;5047443;28;20233;-44
2023/05/18 04:10:25;;;;;;;2.67;1.03;;;20.40;52.50;;;;;;5044558;28;20889;-43
2023/05/18 04:12:57;;;;;;;1.80;0.80;;;20.30;52.40;;;;;;5049351;28;20197;-43
2023/05/18 04:15:26;;;;;;;1.87;1.17;;;20.30;52.40;;;;;;5032228;28;20198;-43
2023/05/18 04:17:55;;;;;;;2.30;0.93;;;20.30;52.40;;;;;;5025736;28;20178;-44
2023/05/18 04:20:27;;;;;;;2.77;1.17;;;20.30;52.40;;;;;;5040749;28;20205;-43
2023/05/18 04:22:57;;;;;;;2.83;0.90;;;20.30;52.40;;;;;;5048743;28;20198;-43
2023/05/18 04:25:27;;;;;;;2.77;1.20;;;20.30;52.40;;;;;;5047969;28;20217;-44
2023/05/18 04:27:58;;;;;;;2.23;0.90;;;20.30;52.30;;;;;;5045893;28;20193;-44
2023/05/18 04:30:29;;;;;;;1.43;0.87;;;20.30;52.40;;;;;;5042424;28;20231;-43
2023/05/18 04:33:02;;;;;;;2.73;1.17;;;20.30;52.40;;;;;;5048487;28;20218;-43
2023/05/18 04:35:53;;;;;;;2.00;1.10;;;20.30;52.40;;;;;;5066151;28;20194;-44
2023/05/18 04:38:22;;;;;;;2.63;1.17;;;20.30;52.40;;;;;;5070417;28;20207;-44
2023/05/18 04:41:07;;;;;;;1.73;1.07;;;20.30;52.40;;;;;;5062450;28;20229;-44
2023/05/18 04:43:36;;;;;;;1.83;1.17;;;20.30;52.40;;;;;;5067761;28;20689;-45
2023/05/18 04:46:08;;;;;;;1.57;1.13;;;20.20;52.30;;;;;;5056428;28;20761;-43
2023/05/18 04:48:43;;;;;;;2.97;1.00;;;20.20;52.30;;;;;;5058340;28;20197;-43
2023/05/18 04:51:12;;;;;;;2.70;1.07;;;20.30;52.40;;;;;;5068053;28;20222;-43
2023/05/18 04:53:44;;;;;;;2.60;1.00;;;20.20;52.30;;;;;;5068668;28;20251;-43
2023/05/18 04:56:13;;;;;;;2.80;1.17;;;20.20;52.30;;;;;;5060955;28;20194;-44
2023/05/18 04:58:48;;;;;;;2.07;1.07;;;20.20;52.30;;;;;;5067629;28;20566;-44
2023/05/18 05:01:19;;;;;;;1.33;1.00;;;20.30;52.40;;;;;;5067633;28;20641;-44
2023/05/18 05:03:50;;;;;;;3.23;1.30;;;20.20;52.30;;;;;;5068023;28;20197;-44
2023/05/18 05:06:19;;;;;;;2.00;1.07;;;20.30;52.30;;;;;;5065738;28;20205;-43
2023/05/18 05:08:51;;;;;;;2.70;1.10;;;20.30;52.30;;;;;;5065792;28;20214;-44
2023/05/18 05:11:21;;;;;;;2.67;1.27;;;20.20;52.30;;;;;;5061841;28;20214;-43
2023/05/18 05:13:52;;;;;;;2.37;1.13;;;20.20;52.30;;;;;;5061226;28;20201;-44
2023/05/18 05:16:22;;;;;;;2.37;1.10;;;20.30;52.30;;;;;;5049011;28;20227;-43
2023/05/18 05:18:53;;;;;;;2.40;1.23;;;20.20;52.20;;;;;;5062990;28;20217;-43
2023/05/18 05:21:22;;;;;;;3.43;1.27;;;20.20;52.20;;;;;;5081389;28;20209;-44
2023/05/18 05:23:51;;;;;;;3.37;1.33;;;20.20;52.20;;;;;;5066619;28;20206;-43
2023/05/18 05:26:20;;;;;;;1.83;1.10;;;20.30;52.20;;;;;;5063133;28;20189;-44
2023/05/18 05:28:52;;;;;;;1.47;1.00;;;20.20;52.20;;;;;;5066718;28;20234;-44
2023/05/18 05:31:24;;;;;;;1.90;1.20;;;20.20;52.20;;;;;;5065679;28;20213;-44
2023/05/18 05:33:53;;;;;;;2.60;1.20;;;20.20;52.20;;;;;;5047190;28;20198;-43
2023/05/18 05:36:21;;;;;;;1.47;0.90;;;20.20;52.20;;;;;;5065568;28;20206;-43
2023/05/18 05:38:50;;;;;;;2.77;1.27;;;20.20;52.20;;;;;;5067133;28;20206;-43
2023/05/18 05:41:22;;;;;;;2.23;1.30;;;20.30;52.20;;;;;;5067758;28;20213;-43
2023/05/18 05:43:52;;;;;;;2.40;1.20;;;20.20;52.20;;;;;;5066895;28;20283;-43
2023/05/18 05:46:23;;;;;;;3.93;1.30;;;20.20;52.30;;;;;;5064777;28;20215;-44
2023/05/18 05:48:54;;;;;;;3.87;1.57;;;20.20;52.30;;;;;;5050290;28;20725;-44
2023/05/18 05:51:23;;;;;;;1.87;1.07;;;20.20;52.30;;;;;;5067777;28;20220;-43
2023/05/18 05:53:52;;;;;;;3.03;1.17;;;20.20;52.30;;;;;;5067450;28;20679;-43
2023/05/18 05:56:22;;;;;;;2.73;1.37;;;20.20;52.20;;;;;;5071193;28;20217;-43
2023/05/18 05:58:51;;;;;;;2.80;1.10;;;20.20;52.20;;;;;;5073979;28;20196;-43
2023/05/18 06:01:20;;;;;;;2.30;1.20;;;20.20;52.20;;;;;;5073551;28;20197;-44
2023/05/18 06:03:51;;;;;;;2.80;1.30;;;20.20;52.20;;;;;;5073660;28;20647;-43
2023/05/18 06:06:21;;;;;;;2.10;1.20;;;20.20;52.20;;;;;;5074094;28;20240;-43
2023/05/18 06:08:53;;;;;;;2.57;1.20;;;20.20;52.20;;;;;;5074743;28;20312;-43
2023/05/18 06:11:35;;;;;;;2.53;1.27;;;20.20;52.20;;;;;;5075379;28;20206;-44
2023/05/18 06:14:07;;;;;;;2.80;1.00;;;20.20;52.20;;;;;;5059323;28;20193;-43
2023/05/18 06:16:38;;;;;;;3.57;1.70;;;20.20;52.20;;;;;;5076883;28;20201;-43
2023/05/18 06:19:09;;;;;;;2.90;1.20;;;20.20;52.20;;;;;;5067747;28;20197;-43
2023/05/18 06:21:40;;;;;;;2.57;1.30;;;20.20;52.20;;;;;;5059343;28;20226;-43
2023/05/18 06:24:10;;;;;;;3.50;1.20;;;20.20;52.10;;;;;;5064390;28;20198;-43
2023/05/18 06:26:53;;;;;;;2.73;1.37;;;20.20;52.10;;;;;;5069761;28;20281;-44
2023/05/18 06:29:24;;;;;;;1.33;0.97;;;20.20;51.90;;;;;;5070566;28;20234;-43
2023/05/18 06:31:56;;;;;;;2.27;0.90;;;20.20;51.90;;;;;;5051772;28;20221;-44
2023/05/18 06:34:26;;;;;;;2.20;1.27;;;20.20;51.90;;;;;;5050561;28;20210;-43
2023/05/18 06:36:59;;;;;;;2.73;1.10;;;20.10;51.90;;;;;;5058053;28;20243;-43
2023/05/18 06:39:29;;;;;;;3.93;1.60;;;20.20;52.00;;;;;;5070199;28;20235;-43
2023/05/18 06:42:00;;;;;;;3.40;1.10;;;20.20;52.10;;;;;;5067694;28;20182;-44
2023/05/18 06:44:30;;;;;;;3.00;1.33;;;20.10;52.10;;;;;;5066758;28;20632;-44
2023/05/18 06:47:14;;;;;;;1.67;1.00;;;20.10;52.10;;;;;;5068712;28;20292;-44
2023/05/18 06:49:45;;;;;;;2.90;1.10;;;20.10;52.10;;;;;;5061935;28;20221;-44
2023/05/18 06:52:14;;;;;;;2.30;1.27;;;20.20;52.10;;;;;;5060996;28;20260;-44
2023/05/18 06:54:47;;;;;;;4.80;1.30;;;20.20;52.00;;;;;;5070179;28;20182;-44
2023/05/18 06:57:19;;;;;;;4.63;1.50;;;20.20;51.90;;;;;;5053779;28;20206;-44
2023/05/18 06:59:52;;;;;;;3.67;1.67;;;20.20;51.90;;;;;;5072042;28;20204;-44
2023/05/18 07:02:23;;;;;;;4.07;1.50;;;20.20;51.70;;;;;;5061273;28;20690;-45
2023/05/18 07:04:54;;;;;;;3.10;1.40;;;20.20;51.60;;;;;;5069820;28;20202;-45
2023/05/18 07:07:22;;;;;;;6.40;1.23;;;20.20;51.50;;;;;;5069551;28;20628;-45
2023/05/18 07:09:53;;;;;;;4.67;1.70;;;20.20;51.30;;;;;;5067553;28;20581;-45
2023/05/18 07:12:25;;;;;;;4.27;1.40;;;20.20;51.30;;;;;;5051914;28;20600;-45
2023/05/18 07:14:55;;;;;;;8.40;1.37;;;20.20;51.20;;;;;;5069863;28;20236;-44
2023/05/18 07:17:26;;;;;;;3.43;1.30;;;20.20;51.20;;;;;;5051695;28;20198;-45
2023/05/18 07:19:55;;;;;;;2.40;1.10;;;20.20;51.10;;;;;;5032685;28;20640;-45
2023/05/18 07:22:33;;;;;;;3.67;1.30;;;20.20;51.10;;;;;;5060035;28;20700;-43
2023/05/18 07:25:03;;;;;;;4.17;1.40;;;20.20;51.00;;;;;;5050719;28;20269;-44
2023/05/18 07:27:34;;;;;;;4.93;1.47;;;20.20;50.80;;;;;;5069082;28;20201;-43
2023/05/18 07:30:29;;;;;;;4.67;1.60;;;20.20;50.70;;;;;;5066465;28;20957;-44
2023/05/18 07:32:57;;;;;;;5.30;1.80;;;20.20;50.60;;;;;;5066342;28;20639;-44
2023/05/18 07:35:28;;;;;;;4.70;1.80;;;20.20;50.50;;;;;;5067793;28;20205;-44
2023/05/18 07:37:59;;;;;;;4.87;1.83;;;20.20;51.00;;;;;;5066600;28;20186;-44
2023/05/18 07:40:28;;;;;;;3.97;1.43;;;20.20;50.40;;;;;;5067249;28;20200;-44
2023/05/18 07:42:58;;;;;;;3.07;1.60;;;20.20;50.40;;;;;;5059476;28;20194;-44
2023/05/18 07:45:30;;;;;;;15.63;3.43;;;20.20;50.60;;;;;;5055344;28;20217;-44
2023/05/18 07:48:00;;;;;;;21.30;4.83;;;20.30;51.00;;;;;;5040587;28;20667;-44
2023/05/18 07:50:33;;;;;;;16.27;5.10;;;20.30;51.00;;;;;;5065969;28;20204;-44
2023/05/18 07:53:05;;;;;;;12.47;4.47;;;20.30;50.60;;;;;;5062434;28;20213;-44
2023/05/18 07:55:37;;;;;;;11.17;4.30;;;20.30;50.60;;;;;;5069061;28;20194;-44
2023/05/18 07:58:09;;;;;;;10.30;4.17;;;20.30;50.80;;;;;;5058809;28;20603;-44
2023/05/18 08:00:43;;;;;;;10.30;4.00;;;20.30;51.30;;;;;;5068842;28;20202;-43
2023/05/18 08:03:17;;;;;;;10.73;3.40;;;20.30;51.30;;;;;;5068535;28;20185;-44
2023/05/18 08:05:46;;;;;;;11.17;3.73;;;20.20;51.30;;;;;;5021215;28;20229;-44
2023/05/18 08:08:14;;;;;;;7.57;3.53;;;20.20;51.40;;;;;;5044733;28;20471;-43
2023/05/18 08:10:45;;;;;;;7.83;3.00;;;20.20;51.60;;;;;;5034694;28;20510;-44
2023/05/18 08:13:18;;;;;;;9.43;3.43;;;20.10;51.70;;;;;;5068756;28;20259;-44
2023/05/18 08:15:50;;;;;;;6.93;2.73;;;20.10;51.90;;;;;;5064945;28;20193;-44
2023/05/18 08:18:38;;;;;;;6.63;2.60;;;20.00;51.90;;;;;;5056003;28;20318;-44
2023/05/18 08:21:09;;;;;;;7.53;3.00;;;20.00;51.90;;;;;;5050659;28;20287;-43
2023/05/18 08:23:40;;;;;;;6.20;2.70;;;20.00;51.80;;;;;;5069717;28;20208;-45
2023/05/18 08:26:11;;;;;;;6.80;2.20;;;20.00;51.90;;;;;;5043107;28;20202;-45
2023/05/18 08:28:44;;;;;;;7.90;2.67;;;20.00;52.00;;;;;;5069468;28;20225;-44
2023/05/18 08:31:15;;;;;;;6.50;2.53;;;20.00;52.00;;;;;;5068999;28;20722;-45
2023/05/18 08:33:48;;;;;;;6.83;2.20;;;20.00;52.00;;;;;;5059089;28;20201;-44
2023/05/18 08:36:19;;;;;;;7.47;2.37;;;19.90;52.00;;;;;;5059593;28;20193;-43
2023/05/18 08:39:09;;;;;;;8.90;2.30;;;19.90;52.10;;;;;;5057882;28;20220;-45
2023/05/18 08:42:07;;;;;;;8.67;2.50;;;19.90;52.00;;;;;;5047399;28;20210;-44
2023/05/18 08:45:07;;;;;;;6.17;2.07;;;19.90;52.10;;;;;;5060720;28;20223;-43
2023/05/18 08:47:36;;;;;;;5.77;2.27;;;19.90;52.00;;;;;;5065569;28;20194;-44
2023/05/18 08:50:04;;;;;;;7.20;2.40;;;19.90;52.20;;;;;;5031839;28;20206;-43
2023/05/18 08:52:35;;;;;;;7.67;2.23;;;19.90;52.10;;;;;;5068689;28;20209;-43
2023/05/18 08:55:06;;;;;;;5.37;2.13;;;19.90;52.20;;;;;;5047552;28;20193;-43
2023/05/18 08:57:42;;;;;;;5.77;2.00;;;19.90;52.20;;;;;;5066703;28;20558;-44
2023/05/18 09:00:20;;;;;;;5.83;2.03;;;19.90;52.20;;;;;;5045349;28;20564;-44
2023/05/18 09:03:07;;;;;;;6.87;2.43;;;19.90;52.20;;;;;;5067466;28;20636;-43
2023/05/18 09:05:40;;;;;;;5.30;1.97;;;19.90;52.20;;;;;;5057726;28;20182;-44
2023/05/18 09:08:20;;;;;;;4.90;1.80;;;19.80;52.20;;;;;;5048437;28;20220;-45
2023/05/18 09:10:57;;;;;;;4.20;2.03;;;19.90;52.30;;;;;;5067861;28;20561;-44
2023/05/18 09:13:28;;;;;;;3.30;1.77;;;19.90;52.40;;;;;;5065815;28;20194;-43
2023/05/18 09:15:59;;;;;;;5.57;1.87;;;19.90;52.30;;;;;;5040941;28;20206;-43
2023/05/18 09:18:27;;;;;;;4.57;2.03;;;19.90;52.10;;;;;;5056175;28;20190;-45
2023/05/18 09:20:58;;;;;;;4.23;1.80;;;19.90;52.10;;;;;;5066499;28;20788;-44
2023/05/18 09:23:26;;;;;;;5.17;1.80;;;19.90;52.20;;;;;;5068964;28;20655;-44
2023/05/18 09:25:58;;;;;;;2.87;1.30;;;19.90;52.10;;;;;;5044439;28;20764;-43
2023/05/18 09:28:37;;;;;;;5.33;2.00;;;19.90;52.00;;;;;;5050150;28;20729;-42
2023/05/18 09:31:17;;;;;;;3.97;1.90;;;19.90;52.10;;;;;;5071121;28;20194;-44
2023/05/18 09:33:50;;;;;;;5.93;1.87;;;19.90;52.10;;;;;;5052577;28;20201;-43
2023/05/18 09:36:45;;;;;;;4.43;1.73;;;19.90;52.00;;;;;;5053079;28;20279;-44
2023/05/18 09:39:15;;;;;;;5.10;1.97;;;19.90;51.90;;;;;;5061756;28;20279;-44
2023/05/18 09:41:43;;;;;;;4.40;1.60;;;19.90;52.10;;;;;;5072027;28;20542;-43
2023/05/18 09:44:16;;;;;;;4.33;1.70;;;19.90;52.10;;;;;;5066723;28;20444;-43
2023/05/18 09:46:55;;;;;;;4.97;1.67;;;19.90;52.00;;;;;;5070958;28;20189;-45
2023/05/18 09:49:29;;;;;;;5.70;2.03;;;19.90;51.90;;;;;;5054813;28;20290;-44
2023/05/18 09:52:08;;;;;;;3.33;1.43;;;19.90;51.80;;;;;;5036397;28;20690;-45
2023/05/18 09:54:39;;;;;;;4.27;1.73;;;19.90;51.90;;;;;;5071068;28;20194;-44
2023/05/18 09:57:08;;;;;;;4.67;1.70;;;19.90;51.80;;;;;;5052275;28;20218;-43
2023/05/18 09:59:40;;;;;;;4.17;1.43;;;19.90;51.90;;;;;;5011789;28;20209;-44
2023/05/18 10:02:12;;;;;;;3.97;2.27;;;19.90;51.60;;;;;;5069228;28;20201;-44
2023/05/18 10:04:44;;;;;;;3.63;1.77;;;19.90;51.70;;;;;;5069419;28;20567;-45
2023/05/18 10:07:21;;;;;;;4.83;1.60;;;20.00;51.70;;;;;;5070176;28;20221;-42
2023/05/18 10:10:03;;;;;;;4.30;1.60;;;20.00;51.80;;;;;;5052074;28;20633;-43
2023/05/18 10:12:39;;;;;;;3.00;1.80;;;20.00;52.00;;;;;;5053570;28;20244;-44
2023/05/18 10:15:18;;;;;;;2.93;1.60;;;19.90;51.90;;;;;;5054556;28;20611;-44
2023/05/18 10:17:54;;;;;;;3.93;1.37;;;20.00;51.90;;;;;;5051953;28;20201;-45
2023/05/18 10:20:40;;;;;;;2.97;1.57;;;20.00;51.90;;;;;;5069413;28;20243;-43
2023/05/18 10:23:12;;;;;;;5.23;1.70;;;20.00;51.80;;;;;;5071385;28;20236;-43
2023/05/18 10:25:47;;;;;;;3.30;1.50;;;20.00;51.90;;;;;;5056746;28;20240;-44
2023/05/18 10:28:43;;;;;;;6.17;2.10;;;20.00;52.00;;;;;;5050842;28;20228;-43
2023/05/18 10:31:29;;;;;;;3.83;1.63;;;20.00;51.70;;;;;;5067965;28;20233;-43
2023/05/18 10:33:59;;;;;;;4.00;1.90;;;20.00;51.70;;;;;;5013240;28;20205;-43
2023/05/18 10:36:34;;;;;;;3.30;1.50;;;20.00;52.10;;;;;;5050434;28;20600;-44
2023/05/18 10:39:10;;;;;;;4.33;1.50;;;20.00;52.10;;;;;;5050543;28;20221;-45
2023/05/18 10:41:53;;;;;;;2.47;1.53;;;20.00;51.90;;;;;;5050404;28;20206;-44
2023/05/18 10:44:25;;;;;;;2.70;1.50;;;20.00;51.70;;;;;;5047707;28;20586;-45
2023/05/18 10:46:58;;;;;;;3.87;1.60;;;20.00;51.50;;;;;;5051035;28;20209;-43
2023/05/18 10:49:51;;;;;;;4.53;1.70;;;20.00;51.70;;;;;;5051361;28;20256;-44
2023/05/18 10:52:25;;;;;;;2.97;1.40;;;20.00;51.90;;;;;;5031079;28;20207;-43
2023/05/18 10:55:07;;;;;;;2.20;1.50;;;20.10;52.00;;;;;;5050396;28;20271;-44
2023/05/18 10:57:52;;;;;;;3.60;1.30;;;20.00;52.10;;;;;;5047444;28;20631;-44
2023/05/18 11:00:21;;;;;;;3.03;1.50;;;20.10;52.30;;;;;;5043946;28;20198;-44
2023/05/18 11:02:54;;;;;;;2.67;1.40;;;20.00;52.30;;;;;;5048693;28;20207;-43
2023/05/18 11:05:25;;;;;;;3.73;1.73;;;20.10;52.40;;;;;;5050796;28;20198;-43
2023/05/18 11:08:04;;;;;;;3.63;1.53;;;20.10;52.50;;;;;;5032697;28;20206;-45
2023/05/18 11:10:46;;;;;;;4.40;1.53;;;20.10;52.40;;;;;;5049806;28;20191;-44
2023/05/18 11:13:15;;;;;;;5.07;1.40;;;20.10;52.40;;;;;;5038108;28;20240;-43
2023/05/18 11:16:00;;;;;;;1.87;1.30;;;20.10;52.40;;;;;;5049800;28;20245;-44
2023/05/18 11:18:48;;;;;;;4.13;1.30;;;20.10;52.60;;;;;;5052659;28;20196;-44
2023/05/18 11:21:24;;;;;;;4.70;1.73;;;20.10;52.60;;;;;;5037194;28;20276;-44
2023/05/18 11:24:30;;;;;;;3.63;1.43;;;20.10;52.60;;;;;;5048581;28;20196;-44
2023/05/18 11:27:16;;;;;;;4.47;1.50;;;20.10;52.60;;;;;;5050226;28;20198;-44
2023/05/18 11:29:52;;;;;;;2.33;1.33;;;20.20;52.80;;;;;;5062846;28;20687;-44
2023/05/18 11:32:39;;;;;;;4.13;1.20;;;20.10;52.60;;;;;;5068445;28;20241;-45
2023/05/18 11:35:22;;;;;;;4.23;1.73;;;20.10;52.50;;;;;;5061714;28;20200;-43
2023/05/18 11:37:51;;;;;;;2.07;1.10;;;20.10;52.40;;;;;;5052478;28;20217;-43
2023/05/18 11:40:48;;;;;;;2.60;1.47;;;20.10;52.50;;;;;;5069582;28;20202;-43
2023/05/18 11:43:28;;;;;;;2.40;1.43;;;20.10;52.40;;;;;;5071235;28;20263;-45
2023/05/18 11:46:17;;;;;;;3.07;1.50;;;20.20;52.50;;;;;;5049728;28;20646;-43
2023/05/18 11:48:44;;;;;;;3.67;1.73;;;20.20;52.50;;;;;;5061027;28;20249;-43
2023/05/18 11:52:19;;;;;;;2.80;1.10;;;20.20;52.40;;;;;;5064012;28;20201;-44
2023/05/18 11:54:59;;;;;;;3.07;1.50;;;20.20;52.40;;;;;;5060423;28;20189;-43
2023/05/18 11:57:44;;;;;;;4.30;1.90;;;20.20;52.50;;;;;;5039841;28;20201;-44
2023/05/18 12:00:14;;;;;;;4.90;1.63;;;20.20;52.30;;;;;;5066667;28;20193;-42
2023/05/18 12:03:16;;;;;;;4.47;1.70;;;20.20;52.40;;;;;;5061798;28;20271;-43
2023/05/18 12:05:48;;;;;;;4.83;1.67;;;20.20;52.40;;;;;;5051994;28;20279;-43
2023/05/18 12:08:39;;;;;;;2.77;1.67;;;20.20;52.50;;;;;;5052802;28;20217;-44
2023/05/18 12:11:27;;;;;;;2.87;1.43;;;20.20;52.40;;;;;;5044275;28;20244;-45
2023/05/18 12:13:59;;;;;;;3.70;1.40;;;20.20;52.20;;;;;;5067621;28;20258;-45
2023/05/18 12:16:33;;;;;;;3.13;1.67;;;20.20;52.30;;;;;;5056813;28;20604;-44
2023/05/18 12:19:06;;;;;;;4.40;1.57;;;20.20;52.30;;;;;;5071136;28;20193;-43
2023/05/18 12:21:42;;;;;;;2.50;1.73;;;20.20;52.30;;;;;;5066977;28;20638;-41
2023/05/18 12:24:12;;;;;;;3.00;1.40;;;20.20;52.50;;;;;;5067512;28;20744;-44
2023/05/18 12:26:40;;;;;;;1.63;1.10;;;20.30;52.60;;;;;;5054874;28;20205;-43
2023/05/18 12:29:11;;;;;;;3.80;1.43;;;20.30;52.60;;;;;;5047815;28;20269;-43
2023/05/18 12:31:41;;;;;;;1.97;1.47;;;20.30;53.30;;;;;;5062995;28;20263;-43
2023/05/18 12:34:10;;;;;;;2.73;1.30;;;20.30;52.60;;;;;;5064251;28;20701;-43
2023/05/18 12:37:00;;;;;;;3.27;1.63;;;20.30;52.70;;;;;;5069182;28;20224;-44
2023/05/18 12:39:32;;;;;;;2.67;1.27;;;20.30;52.60;;;;;;5052350;28;20198;-43
2023/05/18 12:42:14;;;;;;;3.53;1.47;;;20.30;52.70;;;;;;5064847;28;20631;-44
2023/05/18 12:44:43;;;;;;;3.07;1.40;;;20.30;52.60;;;;;;5049350;28;20276;-44
2023/05/18 12:47:19;;;;;;;2.83;1.47;;;20.30;52.70;;;;;;5035361;28;20193;-44
2023/05/18 12:49:49;;;;;;;3.23;1.30;;;20.40;52.70;;;;;;5068311;28;20654;-44
2023/05/18 12:52:21;;;;;;;2.30;1.23;;;20.30;52.80;;;;;;5065951;28;20218;-44
2023/05/18 12:54:58;;;;;;;2.37;1.37;;;20.40;52.80;;;;;;5068802;28;20204;-45
2023/05/18 12:57:36;;;;;;;3.80;1.70;;;20.40;52.80;;;;;;5066935;28;20217;-43
2023/05/18 13:00:10;;;;;;;3.40;1.73;;;20.40;52.70;;;;;;5066431;28;20223;-43
2023/05/18 13:02:42;;;;;;;4.30;1.67;;;20.40;52.70;;;;;;5063801;28;20250;-44
2023/05/18 13:05:11;;;;;;;2.23;1.20;;;20.40;52.70;;;;;;5071671;28;20201;-43
2023/05/18 13:07:44;;;;;;;3.53;1.53;;;20.40;52.70;;;;;;5056640;28;20202;-44
2023/05/18 13:10:18;;;;;;;2.73;1.20;;;20.40;52.60;;;;;;5054575;28;20209;-44
2023/05/18 13:12:47;;;;;;;3.30;1.40;;;20.50;52.60;;;;;;5040260;28;20245;-44
2023/05/18 13:15:25;;;;;;;1.57;1.13;;;20.50;52.60;;;;;;5039863;28;20193;-44
2023/05/18 13:18:03;;;;;;;2.60;1.30;;;20.40;52.70;;;;;;5067249;28;20200;-43
2023/05/18 13:20:49;;;;;;;2.73;1.40;;;20.50;52.70;;;;;;5054666;28;20212;-43
2023/05/18 13:23:58;;;;;;;2.63;1.33;;;20.50;52.70;;;;;;5075969;28;20200;-43